sensor_id;sensor_type;location;lat;lon;timestamp;temperature;humidity
73780;SHT30;62093;37.614;15.072;2022-08-16T00:00:21;25.20;61.28
73780;SHT30;62093;37.614;15.072;2022-08-16T00:02:47;25.22;61.21
73780;SHT30;62093;37.614;15.072;2022-08-16T00:05:14;25.23;61.26
73780;SHT30;62093;37.614;15.072;2022-08-16T00:07:41;25.22;61.28
73780;SHT30;62093;37.614;15.072;2022-08-16T00:10:09;25.23;61.27
73780;SHT30;62093;37.614;15.072;2022-08-16T00:12:36;25.22;61.21
73780;SHT30;62093;37.614;15.072;2022-08-16T00:15:10;25.23;61.24
73780;SHT30;62093;37.614;15.072;2022-08-16T00:17:36;25.22;61.22
73780;SHT30;62093;37.614;15.072;2022-08-16T00:20:04;25.23;61.27
73780;SHT30;62093;37.614;15.072;2022-08-16T00:22:34;25.23;61.22
73780;SHT30;62093;37.614;15.072;2022-08-16T00:25:00;25.23;61.25
73780;SHT30;62093;37.614;15.072;2022-08-16T00:27:26;25.23;61.24
73780;SHT30;62093;37.614;15.072;2022-08-16T00:29:52;25.23;61.24
73780;SHT30;62093;37.614;15.072;2022-08-16T00:32:19;25.25;61.19
73780;SHT30;62093;37.614;15.072;2022-08-16T00:34:45;25.23;61.20
73780;SHT30;62093;37.614;15.072;2022-08-16T00:37:15;25.23;61.25
73780;SHT30;62093;37.614;15.072;2022-08-16T00:39:41;25.25;61.21
73780;SHT30;62093;37.614;15.072;2022-08-16T00:42:06;25.26;61.23
73780;SHT30;62093;37.614;15.072;2022-08-16T00:44:33;25.26;61.21
73780;SHT30;62093;37.614;15.072;2022-08-16T00:47:04;25.23;61.20
73780;SHT30;62093;37.614;15.072;2022-08-16T00:49:32;25.25;61.10
73780;SHT30;62093;37.614;15.072;2022-08-16T00:51:58;25.22;61.21
73780;SHT30;62093;37.614;15.072;2022-08-16T00:54:27;25.23;61.13
73780;SHT30;62093;37.614;15.072;2022-08-16T00:56:55;25.25;61.20
73780;SHT30;62093;37.614;15.072;2022-08-16T00:59:24;25.22;61.13
73780;SHT30;62093;37.614;15.072;2022-08-16T01:01:51;25.23;61.17
73780;SHT30;62093;37.614;15.072;2022-08-16T01:04:20;25.23;61.09
73780;SHT30;62093;37.614;15.072;2022-08-16T01:06:48;25.22;61.21
73780;SHT30;62093;37.614;15.072;2022-08-16T01:09:14;25.22;61.21
73780;SHT30;62093;37.614;15.072;2022-08-16T01:11:40;25.22;61.22
73780;SHT30;62093;37.614;15.072;2022-08-16T01:14:28;25.19;61.27
73780;SHT30;62093;37.614;15.072;2022-08-16T01:16:58;25.22;61.26
73780;SHT30;62093;37.614;15.072;2022-08-16T01:19:30;25.23;61.26
73780;SHT30;62093;37.614;15.072;2022-08-16T01:22:02;25.22;61.16
73780;SHT30;62093;37.614;15.072;2022-08-16T01:24:44;25.22;61.21
73780;SHT30;62093;37.614;15.072;2022-08-16T01:27:16;25.22;61.26
73780;SHT30;62093;37.614;15.072;2022-08-16T01:29:56;25.22;61.23
73780;SHT30;62093;37.614;15.072;2022-08-16T01:32:23;25.20;61.26
73780;SHT30;62093;37.614;15.072;2022-08-16T01:34:50;25.22;61.24
73780;SHT30;62093;37.614;15.072;2022-08-16T01:37:16;25.23;61.23
73780;SHT30;62093;37.614;15.072;2022-08-16T01:39:43;25.20;61.22
73780;SHT30;62093;37.614;15.072;2022-08-16T01:42:09;25.20;61.25
73780;SHT30;62093;37.614;15.072;2022-08-16T01:44:36;25.20;61.20
73780;SHT30;62093;37.614;15.072;2022-08-16T01:47:03;25.20;61.28
73780;SHT30;62093;37.614;15.072;2022-08-16T01:49:33;25.19;61.16
73780;SHT30;62093;37.614;15.072;2022-08-16T01:52:06;25.19;61.19
73780;SHT30;62093;37.614;15.072;2022-08-16T01:55:06;25.19;61.22
73780;SHT30;62093;37.614;15.072;2022-08-16T01:57:33;25.18;61.24
73780;SHT30;62093;37.614;15.072;2022-08-16T01:59:59;25.18;61.31
73780;SHT30;62093;37.614;15.072;2022-08-16T02:02:26;25.19;61.25
73780;SHT30;62093;37.614;15.072;2022-08-16T02:04:52;25.18;61.32
73780;SHT30;62093;37.614;15.072;2022-08-16T02:07:19;25.20;61.31
73780;SHT30;62093;37.614;15.072;2022-08-16T02:09:47;25.19;61.19
73780;SHT30;62093;37.614;15.072;2022-08-16T02:12:13;25.18;61.33
73780;SHT30;62093;37.614;15.072;2022-08-16T02:14:41;25.18;61.30
73780;SHT30;62093;37.614;15.072;2022-08-16T02:17:09;25.16;61.28
73780;SHT30;62093;37.614;15.072;2022-08-16T02:19:38;25.19;61.34
73780;SHT30;62093;37.614;15.072;2022-08-16T02:22:05;25.16;61.32
73780;SHT30;62093;37.614;15.072;2022-08-16T02:24:32;25.18;61.32
73780;SHT30;62093;37.614;15.072;2022-08-16T02:26:58;25.16;61.25
73780;SHT30;62093;37.614;15.072;2022-08-16T02:29:24;25.19;61.30
73780;SHT30;62093;37.614;15.072;2022-08-16T02:31:51;25.16;61.27
73780;SHT30;62093;37.614;15.072;2022-08-16T02:34:19;25.18;61.29
73780;SHT30;62093;37.614;15.072;2022-08-16T02:36:46;25.16;61.39
73780;SHT30;62093;37.614;15.072;2022-08-16T02:39:14;25.18;61.24
73780;SHT30;62093;37.614;15.072;2022-08-16T02:41:42;25.16;61.32
73780;SHT30;62093;37.614;15.072;2022-08-16T02:44:10;25.16;61.24
73780;SHT30;62093;37.614;15.072;2022-08-16T02:46:38;25.16;61.32
73780;SHT30;62093;37.614;15.072;2022-08-16T02:49:05;25.15;61.33
73780;SHT30;62093;37.614;15.072;2022-08-16T02:51:32;25.15;61.27
73780;SHT30;62093;37.614;15.072;2022-08-16T02:54:00;25.15;61.29
73780;SHT30;62093;37.614;15.072;2022-08-16T02:56:26;25.12;61.33
73780;SHT30;62093;37.614;15.072;2022-08-16T02:58:54;25.14;61.35
73780;SHT30;62093;37.614;15.072;2022-08-16T03:01:23;25.15;61.28
73780;SHT30;62093;37.614;15.072;2022-08-16T03:03:54;25.16;61.32
73780;SHT30;62093;37.614;15.072;2022-08-16T03:06:22;25.15;61.38
73780;SHT30;62093;37.614;15.072;2022-08-16T03:08:51;25.15;61.33
73780;SHT30;62093;37.614;15.072;2022-08-16T03:11:18;25.14;61.35
73780;SHT30;62093;37.614;15.072;2022-08-16T03:13:47;25.14;61.38
73780;SHT30;62093;37.614;15.072;2022-08-16T03:16:14;25.15;61.41
73780;SHT30;62093;37.614;15.072;2022-08-16T03:18:40;25.14;61.30
73780;SHT30;62093;37.614;15.072;2022-08-16T03:21:08;25.14;61.34
73780;SHT30;62093;37.614;15.072;2022-08-16T03:23:34;25.14;61.38
73780;SHT30;62093;37.614;15.072;2022-08-16T03:26:01;25.14;61.35
73780;SHT30;62093;37.614;15.072;2022-08-16T03:28:27;25.11;61.32
73780;SHT30;62093;37.614;15.072;2022-08-16T03:30:53;25.15;61.35
73780;SHT30;62093;37.614;15.072;2022-08-16T03:33:20;25.11;61.36
73780;SHT30;62093;37.614;15.072;2022-08-16T03:35:52;25.12;61.36
73780;SHT30;62093;37.614;15.072;2022-08-16T03:38:31;25.11;61.37
73780;SHT30;62093;37.614;15.072;2022-08-16T03:41:02;25.12;61.37
73780;SHT30;62093;37.614;15.072;2022-08-16T03:43:28;25.14;61.41
73780;SHT30;62093;37.614;15.072;2022-08-16T03:45:55;25.14;61.44
73780;SHT30;62093;37.614;15.072;2022-08-16T03:48:29;25.11;61.37
73780;SHT30;62093;37.614;15.072;2022-08-16T03:51:00;25.14;61.38
73780;SHT30;62093;37.614;15.072;2022-08-16T03:53:30;25.12;61.43
73780;SHT30;62093;37.614;15.072;2022-08-16T03:55:56;25.11;61.40
73780;SHT30;62093;37.614;15.072;2022-08-16T03:58:22;25.12;61.37
73780;SHT30;62093;37.614;15.072;2022-08-16T04:00:48;25.11;61.42
73780;SHT30;62093;37.614;15.072;2022-08-16T04:03:17;25.11;61.43
73780;SHT30;62093;37.614;15.072;2022-08-16T04:05:44;25.09;61.42
73780;SHT30;62093;37.614;15.072;2022-08-16T04:08:13;25.11;61.43
73780;SHT30;62093;37.614;15.072;2022-08-16T04:10:40;25.11;61.45
73780;SHT30;62093;37.614;15.072;2022-08-16T04:13:06;25.12;61.41
73780;SHT30;62093;37.614;15.072;2022-08-16T04:15:33;25.11;61.47
73780;SHT30;62093;37.614;15.072;2022-08-16T04:18:20;25.08;61.46
73780;SHT30;62093;37.614;15.072;2022-08-16T04:20:47;25.11;61.46
73780;SHT30;62093;37.614;15.072;2022-08-16T04:23:13;25.09;61.42
73780;SHT30;62093;37.614;15.072;2022-08-16T04:25:42;25.08;61.46
73780;SHT30;62093;37.614;15.072;2022-08-16T04:28:09;25.08;61.51
73780;SHT30;62093;37.614;15.072;2022-08-16T04:30:36;25.09;61.41
73780;SHT30;62093;37.614;15.072;2022-08-16T04:33:03;25.08;61.46
73780;SHT30;62093;37.614;15.072;2022-08-16T04:35:31;25.09;61.44
73780;SHT30;62093;37.614;15.072;2022-08-16T04:37:57;25.08;61.45
73780;SHT30;62093;37.614;15.072;2022-08-16T04:40:30;25.07;61.48
73780;SHT30;62093;37.614;15.072;2022-08-16T04:42:57;25.08;61.47
73780;SHT30;62093;37.614;15.072;2022-08-16T04:45:27;25.08;61.46
73780;SHT30;62093;37.614;15.072;2022-08-16T04:47:54;25.11;61.46
73780;SHT30;62093;37.614;15.072;2022-08-16T04:50:23;25.11;61.48
73780;SHT30;62093;37.614;15.072;2022-08-16T04:53:08;25.09;61.47
73780;SHT30;62093;37.614;15.072;2022-08-16T04:55:36;25.09;61.47
73780;SHT30;62093;37.614;15.072;2022-08-16T04:58:02;25.09;61.51
73780;SHT30;62093;37.614;15.072;2022-08-16T05:00:31;25.09;61.48
73780;SHT30;62093;37.614;15.072;2022-08-16T05:03:11;25.11;61.50
73780;SHT30;62093;37.614;15.072;2022-08-16T05:05:46;25.08;61.40
73780;SHT30;62093;37.614;15.072;2022-08-16T05:08:14;25.09;61.33
73780;SHT30;62093;37.614;15.072;2022-08-16T05:10:44;25.08;61.52
73780;SHT30;62093;37.614;15.072;2022-08-16T05:13:10;25.08;61.50
73780;SHT30;62093;37.614;15.072;2022-08-16T05:15:36;25.07;61.47
73780;SHT30;62093;37.614;15.072;2022-08-16T05:18:03;25.09;61.38
73780;SHT30;62093;37.614;15.072;2022-08-16T05:20:33;25.09;61.35
73780;SHT30;62093;37.614;15.072;2022-08-16T05:23:00;25.09;61.47
73780;SHT30;62093;37.614;15.072;2022-08-16T05:25:27;25.11;61.50
73780;SHT30;62093;37.614;15.072;2022-08-16T05:27:53;25.11;61.49
73780;SHT30;62093;37.614;15.072;2022-08-16T05:30:22;25.07;61.53
73780;SHT30;62093;37.614;15.072;2022-08-16T05:32:48;25.11;61.49
73780;SHT30;62093;37.614;15.072;2022-08-16T05:35:16;25.12;61.58
73780;SHT30;62093;37.614;15.072;2022-08-16T05:37:57;25.09;61.51
73780;SHT30;62093;37.614;15.072;2022-08-16T05:40:23;25.11;61.56
73780;SHT30;62093;37.614;15.072;2022-08-16T05:42:49;25.09;61.57
73780;SHT30;62093;37.614;15.072;2022-08-16T05:45:17;25.12;61.57
73780;SHT30;62093;37.614;15.072;2022-08-16T05:47:43;25.12;61.58
73780;SHT30;62093;37.614;15.072;2022-08-16T05:50:10;25.11;61.58
73780;SHT30;62093;37.614;15.072;2022-08-16T05:52:37;25.09;61.58
73780;SHT30;62093;37.614;15.072;2022-08-16T05:55:05;25.11;61.55
73780;SHT30;62093;37.614;15.072;2022-08-16T05:57:33;25.12;61.56
73780;SHT30;62093;37.614;15.072;2022-08-16T06:00:00;25.12;61.60
73780;SHT30;62093;37.614;15.072;2022-08-16T06:02:27;25.11;61.59
73780;SHT30;62093;37.614;15.072;2022-08-16T06:04:57;25.14;61.54
73780;SHT30;62093;37.614;15.072;2022-08-16T06:07:23;25.12;61.57
73780;SHT30;62093;37.614;15.072;2022-08-16T06:09:54;25.14;61.55
73780;SHT30;62093;37.614;15.072;2022-08-16T06:12:24;25.12;61.52
73780;SHT30;62093;37.614;15.072;2022-08-16T06:14:50;25.14;61.51
73780;SHT30;62093;37.614;15.072;2022-08-16T06:17:17;25.11;61.54
73780;SHT30;62093;37.614;15.072;2022-08-16T06:19:43;25.11;61.54
73780;SHT30;62093;37.614;15.072;2022-08-16T06:22:13;25.14;61.52
73780;SHT30;62093;37.614;15.072;2022-08-16T06:24:40;25.14;61.56
73780;SHT30;62093;37.614;15.072;2022-08-16T06:27:06;25.14;61.54
73780;SHT30;62093;37.614;15.072;2022-08-16T06:29:33;25.12;61.52
73780;SHT30;62093;37.614;15.072;2022-08-16T06:31:59;25.15;61.51
73780;SHT30;62093;37.614;15.072;2022-08-16T06:34:27;25.12;61.51
73780;SHT30;62093;37.614;15.072;2022-08-16T06:36:53;25.15;61.50
73780;SHT30;62093;37.614;15.072;2022-08-16T06:39:21;25.16;61.48
73780;SHT30;62093;37.614;15.072;2022-08-16T06:42:00;25.15;61.49
73780;SHT30;62093;37.614;15.072;2022-08-16T06:44:55;25.14;61.45
73780;SHT30;62093;37.614;15.072;2022-08-16T06:47:32;25.15;61.47
73780;SHT30;62093;37.614;15.072;2022-08-16T06:49:59;25.14;61.44
73780;SHT30;62093;37.614;15.072;2022-08-16T06:52:34;25.18;61.41
73780;SHT30;62093;37.614;15.072;2022-08-16T06:55:04;25.19;61.38
73780;SHT30;62093;37.614;15.072;2022-08-16T06:57:31;25.18;61.27
73780;SHT30;62093;37.614;15.072;2022-08-16T06:59:57;25.22;61.27
73780;SHT30;62093;37.614;15.072;2022-08-16T07:02:24;25.23;61.27
73780;SHT30;62093;37.614;15.072;2022-08-16T07:04:51;25.19;61.20
73780;SHT30;62093;37.614;15.072;2022-08-16T07:07:19;25.20;61.23
73780;SHT30;62093;37.614;15.072;2022-08-16T07:09:46;25.22;61.16
73780;SHT30;62093;37.614;15.072;2022-08-16T07:12:15;25.20;61.16
73780;SHT30;62093;37.614;15.072;2022-08-16T07:14:44;25.19;61.12
73780;SHT30;62093;37.614;15.072;2022-08-16T07:17:13;25.23;61.13
73780;SHT30;62093;37.614;15.072;2022-08-16T07:19:49;25.23;61.10
73780;SHT30;62093;37.614;15.072;2022-08-16T07:22:16;25.25;61.12
73780;SHT30;62093;37.614;15.072;2022-08-16T07:24:42;25.23;61.08
73780;SHT30;62093;37.614;15.072;2022-08-16T07:27:12;25.25;61.09
73780;SHT30;62093;37.614;15.072;2022-08-16T07:29:38;25.29;61.02
73780;SHT30;62093;37.614;15.072;2022-08-16T07:32:06;25.26;61.03
73780;SHT30;62093;37.614;15.072;2022-08-16T07:34:32;25.28;61.00
73780;SHT30;62093;37.614;15.072;2022-08-16T07:37:04;25.26;61.02
73780;SHT30;62093;37.614;15.072;2022-08-16T07:39:48;25.26;61.02
73780;SHT30;62093;37.614;15.072;2022-08-16T07:42:15;25.29;60.98
73780;SHT30;62093;37.614;15.072;2022-08-16T07:44:41;25.30;60.91
73780;SHT30;62093;37.614;15.072;2022-08-16T07:47:07;25.30;60.92
73780;SHT30;62093;37.614;15.072;2022-08-16T07:49:33;25.30;60.89
73780;SHT30;62093;37.614;15.072;2022-08-16T07:52:03;25.35;60.89
73780;SHT30;62093;37.614;15.072;2022-08-16T07:54:30;25.30;60.91
73780;SHT30;62093;37.614;15.072;2022-08-16T07:56:56;25.30;60.85
73780;SHT30;62093;37.614;15.072;2022-08-16T07:59:23;25.30;60.86
73780;SHT30;62093;37.614;15.072;2022-08-16T08:01:53;25.32;60.87
73780;SHT30;62093;37.614;15.072;2022-08-16T08:04:22;25.33;60.78
73780;SHT30;62093;37.614;15.072;2022-08-16T08:06:48;25.32;60.72
73780;SHT30;62093;37.614;15.072;2022-08-16T08:09:16;25.35;60.75
73780;SHT30;62093;37.614;15.072;2022-08-16T08:11:42;25.40;60.68
73780;SHT30;62093;37.614;15.072;2022-08-16T08:14:10;25.38;60.71
73780;SHT30;62093;37.614;15.072;2022-08-16T08:16:43;25.36;60.72
73780;SHT30;62093;37.614;15.072;2022-08-16T08:19:13;25.36;60.70
73780;SHT30;62093;37.614;15.072;2022-08-16T08:21:42;25.35;60.74
73780;SHT30;62093;37.614;15.072;2022-08-16T08:24:09;25.36;60.74
73780;SHT30;62093;37.614;15.072;2022-08-16T08:26:38;25.35;60.74
73780;SHT30;62093;37.614;15.072;2022-08-16T08:29:04;25.36;60.69
73780;SHT30;62093;37.614;15.072;2022-08-16T08:31:31;25.38;60.70
73780;SHT30;62093;37.614;15.072;2022-08-16T08:33:58;25.35;60.69
73780;SHT30;62093;37.614;15.072;2022-08-16T08:36:29;25.35;60.66
73780;SHT30;62093;37.614;15.072;2022-08-16T08:38:56;25.38;60.65
73780;SHT30;62093;37.614;15.072;2022-08-16T08:41:24;25.36;60.63
73780;SHT30;62093;37.614;15.072;2022-08-16T08:43:55;25.39;60.58
73780;SHT30;62093;37.614;15.072;2022-08-16T08:46:22;25.40;60.59
73780;SHT30;62093;37.614;15.072;2022-08-16T08:48:53;25.42;60.58
73780;SHT30;62093;37.614;15.072;2022-08-16T08:51:19;25.40;60.55
73780;SHT30;62093;37.614;15.072;2022-08-16T08:53:52;25.39;60.55
73780;SHT30;62093;37.614;15.072;2022-08-16T08:56:18;25.42;60.57
73780;SHT30;62093;37.614;15.072;2022-08-16T08:58:44;25.43;60.56
73780;SHT30;62093;37.614;15.072;2022-08-16T09:01:27;25.43;60.50
73780;SHT30;62093;37.614;15.072;2022-08-16T09:03:53;25.45;60.54
73780;SHT30;62093;37.614;15.072;2022-08-16T09:06:20;25.46;60.47
73780;SHT30;62093;37.614;15.072;2022-08-16T09:08:46;25.45;60.51
73780;SHT30;62093;37.614;15.072;2022-08-16T09:11:12;25.45;60.43
73780;SHT30;62093;37.614;15.072;2022-08-16T09:13:39;25.47;60.44
73780;SHT30;62093;37.614;15.072;2022-08-16T09:16:06;25.42;60.54
73780;SHT30;62093;37.614;15.072;2022-08-16T09:18:34;25.40;60.76
73780;SHT30;62093;37.614;15.072;2022-08-16T09:21:01;25.46;60.49
73780;SHT30;62093;37.614;15.072;2022-08-16T09:23:30;25.46;60.53
73780;SHT30;62093;37.614;15.072;2022-08-16T09:25:56;25.49;60.54
73780;SHT30;62093;37.614;15.072;2022-08-16T09:28:22;25.50;60.50
73780;SHT30;62093;37.614;15.072;2022-08-16T09:31:06;25.50;60.45
73780;SHT30;62093;37.614;15.072;2022-08-16T09:33:32;25.50;60.40
73780;SHT30;62093;37.614;15.072;2022-08-16T09:35:58;25.53;60.34
73780;SHT30;62093;37.614;15.072;2022-08-16T09:38:24;25.51;60.33
73780;SHT30;62093;37.614;15.072;2022-08-16T09:40:51;25.51;60.34
73780;SHT30;62093;37.614;15.072;2022-08-16T09:43:19;25.57;60.33
73780;SHT30;62093;37.614;15.072;2022-08-16T09:45:46;25.54;60.30
73780;SHT30;62093;37.614;15.072;2022-08-16T09:48:14;25.54;60.25
73780;SHT30;62093;37.614;15.072;2022-08-16T09:50:41;25.56;60.26
73780;SHT30;62093;37.614;15.072;2022-08-16T09:53:12;25.54;60.27
73780;SHT30;62093;37.614;15.072;2022-08-16T09:55:39;25.57;60.24
73780;SHT30;62093;37.614;15.072;2022-08-16T09:58:05;25.59;60.20
73780;SHT30;62093;37.614;15.072;2022-08-16T10:00:31;25.59;60.18
73780;SHT30;62093;37.614;15.072;2022-08-16T10:02:57;25.60;60.19
73780;SHT30;62093;37.614;15.072;2022-08-16T10:05:23;25.60;60.18
73780;SHT30;62093;37.614;15.072;2022-08-16T10:07:49;25.62;60.10
73780;SHT30;62093;37.614;15.072;2022-08-16T10:10:19;25.59;60.12
73780;SHT30;62093;37.614;15.072;2022-08-16T10:12:46;25.60;60.08
73780;SHT30;62093;37.614;15.072;2022-08-16T10:15:31;25.62;60.04
73780;SHT30;62093;37.614;15.072;2022-08-16T10:17:57;25.63;60.01
73780;SHT30;62093;37.614;15.072;2022-08-16T10:20:23;25.63;60.00
73780;SHT30;62093;37.614;15.072;2022-08-16T10:22:51;25.65;60.00
73780;SHT30;62093;37.614;15.072;2022-08-16T10:25:17;25.65;59.98
73780;SHT30;62093;37.614;15.072;2022-08-16T10:27:46;25.66;59.95
73780;SHT30;62093;37.614;15.072;2022-08-16T10:30:13;25.65;59.98
73780;SHT30;62093;37.614;15.072;2022-08-16T10:32:40;25.65;59.97
73780;SHT30;62093;37.614;15.072;2022-08-16T10:35:06;25.66;59.85
73780;SHT30;62093;37.614;15.072;2022-08-16T10:37:32;25.69;59.88
73780;SHT30;62093;37.614;15.072;2022-08-16T10:39:58;25.70;59.88
73780;SHT30;62093;37.614;15.072;2022-08-16T10:42:26;25.70;59.81
73780;SHT30;62093;37.614;15.072;2022-08-16T10:44:53;25.69;59.80
73780;SHT30;62093;37.614;15.072;2022-08-16T10:47:19;25.69;59.87
73780;SHT30;62093;37.614;15.072;2022-08-16T10:49:44;25.71;59.85
73780;SHT30;62093;37.614;15.072;2022-08-16T10:52:10;25.73;59.80
73780;SHT30;62093;37.614;15.072;2022-08-16T10:54:38;25.73;59.73
73780;SHT30;62093;37.614;15.072;2022-08-16T10:57:04;25.71;59.74
73780;SHT30;62093;37.614;15.072;2022-08-16T10:59:32;25.71;59.75
73780;SHT30;62093;37.614;15.072;2022-08-16T11:01:59;25.73;59.72
73780;SHT30;62093;37.614;15.072;2022-08-16T11:04:25;25.77;59.70
73780;SHT30;62093;37.614;15.072;2022-08-16T11:06:52;25.76;59.65
73780;SHT30;62093;37.614;15.072;2022-08-16T11:09:18;25.77;59.65
73780;SHT30;62093;37.614;15.072;2022-08-16T11:11:44;25.74;59.66
73780;SHT30;62093;37.614;15.072;2022-08-16T11:14:09;25.77;59.59
73780;SHT30;62093;37.614;15.072;2022-08-16T11:16:37;25.77;59.61
73780;SHT30;62093;37.614;15.072;2022-08-16T11:19:03;25.76;59.64
73780;SHT30;62093;37.614;15.072;2022-08-16T11:21:31;25.77;59.56
73780;SHT30;62093;37.614;15.072;2022-08-16T11:23:57;25.77;59.55
73780;SHT30;62093;37.614;15.072;2022-08-16T11:26:23;25.77;59.58
73780;SHT30;62093;37.614;15.072;2022-08-16T11:28:49;25.78;59.52
73780;SHT30;62093;37.614;15.072;2022-08-16T11:31:16;25.80;59.52
73780;SHT30;62093;37.614;15.072;2022-08-16T11:33:42;25.80;59.50
73780;SHT30;62093;37.614;15.072;2022-08-16T11:36:08;25.83;59.53
73780;SHT30;62093;37.614;15.072;2022-08-16T11:38:35;25.78;59.51
73780;SHT30;62093;37.614;15.072;2022-08-16T11:41:00;25.81;59.52
73780;SHT30;62093;37.614;15.072;2022-08-16T11:43:29;25.78;59.52
73780;SHT30;62093;37.614;15.072;2022-08-16T11:45:57;25.81;59.46
73780;SHT30;62093;37.614;15.072;2022-08-16T11:48:25;25.83;59.44
73780;SHT30;62093;37.614;15.072;2022-08-16T11:50:53;25.84;59.44
73780;SHT30;62093;37.614;15.072;2022-08-16T11:53:20;25.84;59.47
73780;SHT30;62093;37.614;15.072;2022-08-16T11:55:46;25.87;59.42
73780;SHT30;62093;37.614;15.072;2022-08-16T11:58:12;25.84;59.41
73780;SHT30;62093;37.614;15.072;2022-08-16T12:00:41;25.86;59.42
73780;SHT30;62093;37.614;15.072;2022-08-16T12:03:07;25.84;59.39
73780;SHT30;62093;37.614;15.072;2022-08-16T12:05:34;25.87;59.38
73780;SHT30;62093;37.614;15.072;2022-08-16T12:08:03;25.87;59.34
73780;SHT30;62093;37.614;15.072;2022-08-16T12:10:29;25.87;59.34
73780;SHT30;62093;37.614;15.072;2022-08-16T12:12:55;25.90;59.32
73780;SHT30;62093;37.614;15.072;2022-08-16T12:15:21;25.88;59.36
73780;SHT30;62093;37.614;15.072;2022-08-16T12:17:49;25.87;59.25
73780;SHT30;62093;37.614;15.072;2022-08-16T12:20:19;25.87;59.27
73780;SHT30;62093;37.614;15.072;2022-08-16T12:22:45;25.87;59.29
73780;SHT30;62093;37.614;15.072;2022-08-16T12:25:14;25.94;59.24
73780;SHT30;62093;37.614;15.072;2022-08-16T12:27:41;25.90;59.24
73780;SHT30;62093;37.614;15.072;2022-08-16T12:30:11;25.91;59.21
73780;SHT30;62093;37.614;15.072;2022-08-16T12:32:37;25.91;59.21
73780;SHT30;62093;37.614;15.072;2022-08-16T12:35:03;25.93;59.22
73780;SHT30;62093;37.614;15.072;2022-08-16T12:37:32;25.93;59.19
73780;SHT30;62093;37.614;15.072;2022-08-16T12:39:58;25.94;59.14
73780;SHT30;62093;37.614;15.072;2022-08-16T12:42:25;25.97;59.10
73780;SHT30;62093;37.614;15.072;2022-08-16T12:44:51;25.98;59.10
73780;SHT30;62093;37.614;15.072;2022-08-16T12:47:18;25.98;59.06
73780;SHT30;62093;37.614;15.072;2022-08-16T12:50:06;26.00;58.99
73780;SHT30;62093;37.614;15.072;2022-08-16T12:52:32;26.01;58.99
73780;SHT30;62093;37.614;15.072;2022-08-16T12:54:59;26.02;58.97
73780;SHT30;62093;37.614;15.072;2022-08-16T12:57:25;26.02;58.92
73780;SHT30;62093;37.614;15.072;2022-08-16T12:59:51;26.04;58.93
73780;SHT30;62093;37.614;15.072;2022-08-16T13:02:17;26.08;58.84
73780;SHT30;62093;37.614;15.072;2022-08-16T13:04:44;26.02;58.88
73780;SHT30;62093;37.614;15.072;2022-08-16T13:07:10;26.04;58.90
73780;SHT30;62093;37.614;15.072;2022-08-16T13:09:39;26.07;58.82
73780;SHT30;62093;37.614;15.072;2022-08-16T13:12:16;26.07;58.76
73780;SHT30;62093;37.614;15.072;2022-08-16T13:14:49;26.05;58.80
73780;SHT30;62093;37.614;15.072;2022-08-16T13:17:22;26.07;58.77
73780;SHT30;62093;37.614;15.072;2022-08-16T13:19:51;26.11;58.73
73780;SHT30;62093;37.614;15.072;2022-08-16T13:22:18;26.08;58.74
73780;SHT30;62093;37.614;15.072;2022-08-16T13:24:44;26.16;58.60
73780;SHT30;62093;37.614;15.072;2022-08-16T13:27:10;26.11;58.65
73780;SHT30;62093;37.614;15.072;2022-08-16T13:29:36;26.11;58.67
73780;SHT30;62093;37.614;15.072;2022-08-16T13:32:03;26.14;58.57
73780;SHT30;62093;37.614;15.072;2022-08-16T13:34:29;26.10;58.58
73780;SHT30;62093;37.614;15.072;2022-08-16T13:36:55;26.08;58.68
73780;SHT30;62093;37.614;15.072;2022-08-16T13:39:23;26.08;58.70
73780;SHT30;62093;37.614;15.072;2022-08-16T13:41:49;26.10;58.66
73780;SHT30;62093;37.614;15.072;2022-08-16T13:44:15;26.14;58.72
73780;SHT30;62093;37.614;15.072;2022-08-16T13:46:44;26.10;58.65
73780;SHT30;62093;37.614;15.072;2022-08-16T13:49:12;26.13;58.63
73780;SHT30;62093;37.614;15.072;2022-08-16T13:51:38;26.13;58.62
73780;SHT30;62093;37.614;15.072;2022-08-16T13:54:05;26.11;58.65
73780;SHT30;62093;37.614;15.072;2022-08-16T13:56:34;26.11;58.64
73780;SHT30;62093;37.614;15.072;2022-08-16T13:59:01;26.08;58.71
73780;SHT30;62093;37.614;15.072;2022-08-16T14:01:27;26.05;58.77
73780;SHT30;62093;37.614;15.072;2022-08-16T14:03:53;26.07;58.79
73780;SHT30;62093;37.614;15.072;2022-08-16T14:06:19;26.02;58.82
73780;SHT30;62093;37.614;15.072;2022-08-16T14:08:45;26.05;58.81
73780;SHT30;62093;37.614;15.072;2022-08-16T14:11:13;26.07;58.82
73780;SHT30;62093;37.614;15.072;2022-08-16T14:13:40;26.05;58.82
73780;SHT30;62093;37.614;15.072;2022-08-16T14:16:07;26.08;58.86
73780;SHT30;62093;37.614;15.072;2022-08-16T14:18:33;26.11;58.71
73780;SHT30;62093;37.614;15.072;2022-08-16T14:20:59;26.08;58.74
73780;SHT30;62093;37.614;15.072;2022-08-16T14:23:25;26.04;58.83
73780;SHT30;62093;37.614;15.072;2022-08-16T14:25:51;26.01;58.91
73780;SHT30;62093;37.614;15.072;2022-08-16T14:28:17;26.02;58.91
73780;SHT30;62093;37.614;15.072;2022-08-16T14:30:44;26.01;58.91
73780;SHT30;62093;37.614;15.072;2022-08-16T14:33:10;25.97;58.99
73780;SHT30;62093;37.614;15.072;2022-08-16T14:35:36;25.98;58.97
73780;SHT30;62093;37.614;15.072;2022-08-16T14:38:02;25.97;59.04
73780;SHT30;62093;37.614;15.072;2022-08-16T14:40:28;25.97;59.09
73780;SHT30;62093;37.614;15.072;2022-08-16T14:42:55;25.96;59.11
73780;SHT30;62093;37.614;15.072;2022-08-16T14:45:25;26.00;59.12
73780;SHT30;62093;37.614;15.072;2022-08-16T14:47:51;26.01;59.03
73780;SHT30;62093;37.614;15.072;2022-08-16T14:50:20;26.00;59.06
73780;SHT30;62093;37.614;15.072;2022-08-16T14:52:52;25.97;59.11
73780;SHT30;62093;37.614;15.072;2022-08-16T14:55:18;25.96;59.18
73780;SHT30;62093;37.614;15.072;2022-08-16T14:57:44;25.93;59.24
73780;SHT30;62093;37.614;15.072;2022-08-16T15:00:11;25.91;59.24
73780;SHT30;62093;37.614;15.072;2022-08-16T15:02:38;25.94;59.22
73780;SHT30;62093;37.614;15.072;2022-08-16T15:05:06;25.94;59.23
73780;SHT30;62093;37.614;15.072;2022-08-16T15:07:31;25.96;59.21
73780;SHT30;62093;37.614;15.072;2022-08-16T15:09:57;25.96;59.25
73780;SHT30;62093;37.614;15.072;2022-08-16T15:12:24;26.00;59.17
73780;SHT30;62093;37.614;15.072;2022-08-16T15:14:52;26.00;59.14
73780;SHT30;62093;37.614;15.072;2022-08-16T15:17:21;26.02;59.05
73780;SHT30;62093;37.614;15.072;2022-08-16T15:19:48;26.02;59.05